createdAt,value
2022-11-04T00:00:04.009Z,0.00
2022-11-04T00:01:04.044Z,0.00
2022-11-04T00:02:04.079Z,0.00
2022-11-04T00:03:03.911Z,0.00
2022-11-04T00:04:04.065Z,0.00
2022-11-04T00:05:03.889Z,0.00
2022-11-04T00:06:03.885Z,0.00
2022-11-04T00:07:03.870Z,0.00
2022-11-04T00:08:03.864Z,0.00
2022-11-04T00:09:03.883Z,0.00
2022-11-04T00:10:03.855Z,0.00
2022-11-04T00:11:03.821Z,0.00
2022-11-04T00:12:03.816Z,0.00
2022-11-04T00:13:03.801Z,0.00
2022-11-04T00:14:03.807Z,0.00
2022-11-04T00:15:03.819Z,0.00
2022-11-04T00:16:03.771Z,0.00
2022-11-04T00:17:03.754Z,0.00
2022-11-04T00:18:03.744Z,0.00
2022-11-04T00:19:03.894Z,0.00
2022-11-04T00:20:03.801Z,0.00
2022-11-04T00:21:03.710Z,0.00
2022-11-04T00:22:03.699Z,0.00
2022-11-04T00:23:03.686Z,0.00
2022-11-04T00:24:03.678Z,0.00
2022-11-04T00:25:03.733Z,0.00
2022-11-04T00:26:03.657Z,0.00
2022-11-04T00:27:03.643Z,0.00
2022-11-04T00:28:03.636Z,0.00
2022-11-04T00:29:03.633Z,0.00
2022-11-04T00:30:03.609Z,0.00
2022-11-04T00:31:03.638Z,0.00
2022-11-04T00:32:03.614Z,0.00
2022-11-04T00:33:03.587Z,0.00
2022-11-04T00:34:03.595Z,0.00
2022-11-04T00:35:03.554Z,0.00
2022-11-04T00:36:03.569Z,0.00
2022-11-04T00:37:03.532Z,0.00
2022-11-04T00:38:03.522Z,0.00
2022-11-04T00:39:03.556Z,0.00
2022-11-04T00:40:03.503Z,0.00
2022-11-04T00:41:03.503Z,0.00
2022-11-04T00:42:03.475Z,0.00
2022-11-04T00:43:03.490Z,0.00
2022-11-04T00:44:03.455Z,0.00
2022-11-04T00:45:03.441Z,0.00
2022-11-04T00:46:03.443Z,0.00
2022-11-04T00:47:03.424Z,0.00
2022-11-04T00:48:03.444Z,0.00
2022-11-04T00:49:03.397Z,0.00
2022-11-04T00:50:03.387Z,0.00
2022-11-04T00:51:03.478Z,0.00
2022-11-04T00:52:03.368Z,0.00
2022-11-04T00:53:03.351Z,0.00
2022-11-04T00:54:03.367Z,0.00
2022-11-04T00:55:03.329Z,0.00
2022-11-04T00:56:03.320Z,0.00
2022-11-04T00:57:03.330Z,0.00
2022-11-04T00:58:03.303Z,0.00
2022-11-04T00:59:03.330Z,0.00
2022-11-04T01:00:03.276Z,0.00
2022-11-04T01:01:03.315Z,0.00
2022-11-04T01:02:03.436Z,0.00
2022-11-04T01:03:03.250Z,0.00
2022-11-04T01:04:03.258Z,0.00
2022-11-04T01:05:03.242Z,0.00
2022-11-04T01:06:03.211Z,0.00
2022-11-04T01:07:03.221Z,0.00
2022-11-04T01:08:03.187Z,0.00
2022-11-04T01:09:03.174Z,0.00
2022-11-04T01:10:03.168Z,0.00
2022-11-04T01:11:03.183Z,0.00
2022-11-04T01:12:03.146Z,0.00
2022-11-04T01:13:03.152Z,0.00
2022-11-04T01:14:03.154Z,0.00
2022-11-04T01:15:03.113Z,0.00
2022-11-04T01:16:03.123Z,0.00
2022-11-04T01:17:03.094Z,0.00
2022-11-04T01:18:03.097Z,0.00
2022-11-04T01:19:03.092Z,0.00
2022-11-04T01:20:03.054Z,0.00
2022-11-04T01:21:03.048Z,0.00
2022-11-04T01:22:03.125Z,0.00
2022-11-04T01:23:03.017Z,0.00
2022-11-04T01:24:03.019Z,0.00
2022-11-04T01:25:02.998Z,0.00
2022-11-04T01:26:02.994Z,0.00
2022-11-04T01:27:03.155Z,0.00
2022-11-04T01:28:02.970Z,0.00
2022-11-04T01:29:02.975Z,0.00
2022-11-04T01:30:02.948Z,0.00
2022-11-04T01:31:02.939Z,0.00
2022-11-04T01:32:02.920Z,0.00
2022-11-04T01:33:02.933Z,0.00
2022-11-04T01:34:02.902Z,0.00
2022-11-04T01:35:02.914Z,0.00
2022-11-04T01:36:02.882Z,0.00
2022-11-04T01:37:02.866Z,0.00
2022-11-04T01:38:03.175Z,0.00
2022-11-04T01:39:02.849Z,0.00
2022-11-04T01:40:02.909Z,0.00
2022-11-04T01:41:02.819Z,0.00
2022-11-04T01:43:02.822Z,0.00
2022-11-04T01:44:02.787Z,0.00
2022-11-04T01:45:02.796Z,0.00
2022-11-04T01:46:02.767Z,0.00
2022-11-04T01:47:02.759Z,0.00
2022-11-04T01:48:02.768Z,0.00
2022-11-04T01:49:02.763Z,0.00
2022-11-04T01:50:02.720Z,0.00
2022-11-04T01:51:02.713Z,0.00
2022-11-04T01:52:02.697Z,0.00
2022-11-04T01:53:02.685Z,0.00
2022-11-04T01:54:02.696Z,0.00
2022-11-04T01:55:02.664Z,0.00
2022-11-04T01:56:02.657Z,0.00
2022-11-04T01:57:02.650Z,0.00
2022-11-04T01:58:02.667Z,0.00
2022-11-04T01:59:02.615Z,0.00
2022-11-04T02:00:02.715Z,0.00
2022-11-04T02:01:02.747Z,0.00
2022-11-04T02:02:02.748Z,0.00
2022-11-04T02:03:02.657Z,0.00
2022-11-04T02:04:02.615Z,0.00
2022-11-04T02:05:02.590Z,0.00
2022-11-04T02:06:02.552Z,0.00
2022-11-04T02:07:02.540Z,0.00
2022-11-04T02:08:02.518Z,0.00
2022-11-04T02:09:03.689Z,0.00
2022-11-04T02:10:02.500Z,0.00
2022-11-04T02:11:02.501Z,0.00
2022-11-04T02:12:02.485Z,0.00
2022-11-04T02:13:02.516Z,0.00
2022-11-04T02:14:02.481Z,0.00
2022-11-04T02:15:02.439Z,0.00
2022-11-04T02:16:02.513Z,0.00
2022-11-04T02:17:02.454Z,0.00
2022-11-04T02:18:02.408Z,0.00
2022-11-04T02:19:02.402Z,0.00
2022-11-04T02:20:02.385Z,0.00
2022-11-04T02:21:02.374Z,0.00
2022-11-04T02:22:02.386Z,0.00
2022-11-04T02:23:02.348Z,0.00
2022-11-04T02:24:02.343Z,0.00
2022-11-04T02:25:02.326Z,0.00
2022-11-04T02:26:02.346Z,0.00
2022-11-04T02:27:02.302Z,0.00
2022-11-04T02:28:02.404Z,0.00
2022-11-04T02:29:02.307Z,0.00
2022-11-04T02:30:02.278Z,0.00
2022-11-04T02:31:02.261Z,0.00
2022-11-04T02:32:02.275Z,0.00
2022-11-04T02:33:02.276Z,0.00
2022-11-04T02:34:02.241Z,0.00
2022-11-04T02:35:02.231Z,0.00
2022-11-04T02:36:02.234Z,0.00
2022-11-04T02:37:02.220Z,0.00
2022-11-04T02:38:02.185Z,0.00
2022-11-04T02:39:02.204Z,0.00
2022-11-04T02:40:02.176Z,0.00
2022-11-04T02:41:02.173Z,0.00
2022-11-04T02:42:02.167Z,0.00
2022-11-04T02:43:02.131Z,0.00
2022-11-04T02:44:02.116Z,0.00
2022-11-04T02:45:02.157Z,0.00
2022-11-04T02:46:02.098Z,0.00
2022-11-04T02:47:02.082Z,0.00
2022-11-04T02:48:02.073Z,0.00
2022-11-04T02:49:02.076Z,0.00
2022-11-04T02:50:02.109Z,0.00
2022-11-04T02:51:02.034Z,0.00
2022-11-04T02:52:02.043Z,0.00
2022-11-04T02:53:02.030Z,0.00
2022-11-04T02:54:02.036Z,0.00
2022-11-04T02:55:01.992Z,0.00
2022-11-04T02:56:01.984Z,0.00
2022-11-04T02:57:01.971Z,0.00
2022-11-04T02:58:01.962Z,0.00
2022-11-04T02:59:01.946Z,0.00
2022-11-04T03:00:01.968Z,0.00
2022-11-04T03:01:01.951Z,0.00
2022-11-04T03:02:02.110Z,0.00
2022-11-04T03:03:01.904Z,0.00
2022-11-04T03:04:01.894Z,0.00
2022-11-04T03:05:01.960Z,0.00
2022-11-04T03:06:01.910Z,0.00
2022-11-04T03:07:01.931Z,0.00
2022-11-04T03:08:01.887Z,0.00
2022-11-04T03:09:01.835Z,0.00
2022-11-04T03:10:01.856Z,0.00
2022-11-04T03:11:01.835Z,0.00
2022-11-04T03:12:01.805Z,0.00
2022-11-04T03:13:01.812Z,0.00
2022-11-04T03:14:01.780Z,0.00
2022-11-04T03:15:01.810Z,0.00
2022-11-04T03:16:01.804Z,0.00
2022-11-04T03:17:01.781Z,0.00
2022-11-04T03:18:01.741Z,0.00
2022-11-04T03:19:01.722Z,0.00
2022-11-04T03:20:01.727Z,0.00
2022-11-04T03:21:01.740Z,0.00
2022-11-04T03:22:01.696Z,0.00
2022-11-04T03:23:01.685Z,0.00
2022-11-04T03:24:01.676Z,0.00
2022-11-04T03:25:01.673Z,0.00
2022-11-04T03:26:01.677Z,0.00
2022-11-04T03:27:01.635Z,0.00
2022-11-04T03:28:01.623Z,0.00
2022-11-04T03:29:01.623Z,0.00
2022-11-04T03:30:01.741Z,0.00
2022-11-04T03:31:01.592Z,0.00
2022-11-04T03:32:01.577Z,0.00
2022-11-04T03:33:01.565Z,0.00
2022-11-04T03:34:01.570Z,0.00
2022-11-04T03:35:01.569Z,0.00
2022-11-04T03:36:01.544Z,0.00
2022-11-04T03:37:01.565Z,0.00
2022-11-04T03:38:01.547Z,0.00
2022-11-04T03:39:01.499Z,0.00
2022-11-04T03:40:01.540Z,0.00
2022-11-04T03:41:01.483Z,0.00
2022-11-04T03:42:01.512Z,0.00
2022-11-04T03:43:01.479Z,0.00
2022-11-04T03:44:01.452Z,0.00
2022-11-04T03:45:01.434Z,0.00
2022-11-04T03:46:01.422Z,0.00
2022-11-04T03:47:01.435Z,0.00
2022-11-04T03:48:01.400Z,0.00
2022-11-04T03:49:01.394Z,0.00
2022-11-04T03:50:01.378Z,0.00
2022-11-04T03:51:01.374Z,0.00
2022-11-04T03:52:01.378Z,0.00
2022-11-04T03:53:01.367Z,0.00
2022-11-04T03:54:01.334Z,0.00
2022-11-04T03:55:01.322Z,0.00
2022-11-04T03:56:01.333Z,0.00
2022-11-04T03:57:01.320Z,0.00
2022-11-04T03:58:01.301Z,0.00
2022-11-04T03:59:01.333Z,0.00
2022-11-04T04:00:01.280Z,0.00
2022-11-04T04:01:01.286Z,0.00
2022-11-04T04:02:01.391Z,0.00
2022-11-04T04:03:01.236Z,0.00
2022-11-04T04:04:01.230Z,0.00
2022-11-04T04:05:01.263Z,0.00
2022-11-04T04:06:01.215Z,0.00
2022-11-04T04:07:01.187Z,0.00
2022-11-04T04:08:01.214Z,0.00
2022-11-04T04:09:01.214Z,0.00
2022-11-04T04:10:01.189Z,0.00
2022-11-04T04:11:01.189Z,0.00
2022-11-04T04:12:01.132Z,0.00
2022-11-04T04:13:01.144Z,0.00
2022-11-04T04:14:01.120Z,0.00
2022-11-04T04:15:01.199Z,0.00
2022-11-04T04:16:01.101Z,0.00
2022-11-04T04:17:01.199Z,0.00
2022-11-04T04:18:01.067Z,0.00
2022-11-04T04:19:01.063Z,0.00
2022-11-04T04:20:01.043Z,0.00
2022-11-04T04:21:01.058Z,0.00
2022-11-04T04:22:01.023Z,0.00
2022-11-04T04:23:01.013Z,0.00
2022-11-04T04:24:01.000Z,0.00
2022-11-04T04:25:01.033Z,0.00
2022-11-04T04:26:00.996Z,0.00
2022-11-04T04:27:00.970Z,0.00
2022-11-04T04:28:00.978Z,0.00
2022-11-04T04:29:00.944Z,0.00
2022-11-04T04:30:00.939Z,0.00
2022-11-04T04:31:00.969Z,0.00
2022-11-04T04:32:00.911Z,0.00
2022-11-04T04:33:00.924Z,0.00
2022-11-04T04:34:01.025Z,0.00
2022-11-04T04:35:00.880Z,0.00
2022-11-04T04:36:00.895Z,0.00
2022-11-04T04:37:00.864Z,0.00
2022-11-04T04:38:00.845Z,0.00
2022-11-04T04:39:00.870Z,0.00
2022-11-04T04:40:00.818Z,0.00
2022-11-04T04:41:00.900Z,0.00
2022-11-04T04:42:00.808Z,0.00
2022-11-04T04:43:00.848Z,0.00
2022-11-04T04:44:00.777Z,0.00
2022-11-04T04:45:00.791Z,0.00
2022-11-04T04:46:00.752Z,0.00
2022-11-04T04:47:00.775Z,0.00
2022-11-04T04:48:00.729Z,0.00
2022-11-04T04:49:00.738Z,0.00
2022-11-04T04:50:00.713Z,0.00
2022-11-04T04:51:00.696Z,0.00
2022-11-04T04:52:00.749Z,0.00
2022-11-04T04:53:00.708Z,0.00
2022-11-04T04:54:00.672Z,0.00
2022-11-04T04:55:00.683Z,0.00
2022-11-04T04:56:00.659Z,0.00
2022-11-04T04:57:00.675Z,0.00
2022-11-04T04:58:00.647Z,0.00
2022-11-04T04:59:00.614Z,0.00
2022-11-04T05:00:00.602Z,0.00
2022-11-04T05:01:00.614Z,0.00
2022-11-04T05:02:00.731Z,0.00
2022-11-04T05:03:00.589Z,0.00
2022-11-04T05:04:00.552Z,0.00
2022-11-04T05:05:00.561Z,0.00
2022-11-04T05:06:00.524Z,0.00
2022-11-04T05:07:00.514Z,0.00
2022-11-04T05:08:00.530Z,0.00
2022-11-04T05:09:00.488Z,0.00
2022-11-04T05:10:00.485Z,0.00
2022-11-04T05:11:00.470Z,0.00
2022-11-04T05:12:00.454Z,0.00
2022-11-04T05:13:00.464Z,0.00
2022-11-04T05:14:00.452Z,0.00
2022-11-04T05:15:00.450Z,0.00
2022-11-04T05:16:00.424Z,0.00
2022-11-04T05:17:00.406Z,0.00
2022-11-04T05:18:00.403Z,0.00
2022-11-04T05:19:00.384Z,0.00
2022-11-04T05:20:00.394Z,0.00
2022-11-04T05:21:00.362Z,0.00
2022-11-04T05:22:00.348Z,0.00
2022-11-04T05:23:00.343Z,0.00
2022-11-04T05:24:00.329Z,0.00
2022-11-04T05:25:00.343Z,0.00
2022-11-04T05:26:00.305Z,0.00
2022-11-04T05:27:00.301Z,0.00
2022-11-04T05:28:00.281Z,0.00
2022-11-04T05:29:00.293Z,0.00
2022-11-04T05:30:00.292Z,0.00
2022-11-04T05:31:00.250Z,0.00
2022-11-04T05:32:00.370Z,0.00
2022-11-04T05:33:04.673Z,0.00
2022-11-04T05:34:01.212Z,0.00
2022-11-04T05:35:00.384Z,0.00
2022-11-04T05:36:00.198Z,0.00
2022-11-04T05:37:00.193Z,0.00
2022-11-04T05:38:00.181Z,0.00
2022-11-04T05:39:00.168Z,0.00
2022-11-04T05:40:00.201Z,0.00
2022-11-04T05:41:00.142Z,0.00
2022-11-04T05:42:00.151Z,0.00
2022-11-04T05:43:00.116Z,0.00
2022-11-04T05:44:00.107Z,0.00
2022-11-04T05:45:00.139Z,0.00
2022-11-04T05:46:00.098Z,0.00
2022-11-04T05:47:00.078Z,0.00
2022-11-04T05:48:00.101Z,0.00
2022-11-04T05:49:00.090Z,0.00
2022-11-04T05:50:00.038Z,0.00
2022-11-04T05:51:00.058Z,0.00
2022-11-04T05:52:00.034Z,0.00
2022-11-04T05:53:00.004Z,0.00
2022-11-04T05:53:59.996Z,0.00
2022-11-04T05:55:00.038Z,4.00
2022-11-04T05:56:00.028Z,0.00
2022-11-04T05:56:59.972Z,4.00
2022-11-04T05:57:59.989Z,4.00
2022-11-04T05:58:59.940Z,4.00
2022-11-04T05:59:59.932Z,4.00
2022-11-04T06:00:59.961Z,8.00
2022-11-04T06:02:00.052Z,4.00
2022-11-04T06:03:00.018Z,8.00
2022-11-04T06:03:59.882Z,12.00
2022-11-04T06:04:59.899Z,12.00
2022-11-04T06:05:59.892Z,8.00
2022-11-04T06:06:59.858Z,12.00
2022-11-04T06:07:59.842Z,16.00
2022-11-04T06:08:59.843Z,20.00
2022-11-04T06:09:59.877Z,24.00
2022-11-04T06:10:59.808Z,28.00
2022-11-04T06:11:59.826Z,28.00
2022-11-04T06:12:59.785Z,24.00
2022-11-04T06:13:59.801Z,24.00
2022-11-04T06:14:59.804Z,28.00
2022-11-04T06:15:59.752Z,32.00
2022-11-04T06:16:59.809Z,40.00
2022-11-04T06:17:59.733Z,40.00
2022-11-04T06:19:03.410Z,44.00
2022-11-04T06:20:00.711Z,52.00
2022-11-04T06:20:59.709Z,52.00
2022-11-04T06:21:59.699Z,60.00
2022-11-04T06:22:59.722Z,60.00
2022-11-04T06:23:59.686Z,64.00
2022-11-04T06:24:59.661Z,72.00
2022-11-04T06:25:59.663Z,76.00
2022-11-04T06:26:59.642Z,76.00
2022-11-04T06:27:59.656Z,80.00
2022-11-04T06:28:59.617Z,80.00
2022-11-04T06:29:59.607Z,88.00
2022-11-04T06:30:59.594Z,88.00
2022-11-04T06:31:59.584Z,96.00
2022-11-04T06:32:59.624Z,96.00
2022-11-04T06:33:59.566Z,100.00
2022-11-04T06:34:59.552Z,96.00
2022-11-04T06:35:59.544Z,100.00
2022-11-04T06:36:59.526Z,104.00
2022-11-04T06:37:59.542Z,108.00
2022-11-04T06:39:04.418Z,112.00
2022-11-04T06:40:00.496Z,112.00
2022-11-04T06:40:59.511Z,120.00
2022-11-04T06:42:01.421Z,128.00
2022-11-04T06:42:59.469Z,140.00
2022-11-04T06:43:59.450Z,144.00
2022-11-04T06:44:59.446Z,144.00
2022-11-04T06:45:59.432Z,160.00
2022-11-04T06:46:59.452Z,176.00
2022-11-04T06:47:59.406Z,196.00
2022-11-04T06:48:59.421Z,208.00
2022-11-04T06:49:59.383Z,228.00
2022-11-04T06:50:59.380Z,252.00
2022-11-04T06:51:59.385Z,272.00
2022-11-04T06:52:59.382Z,296.00
2022-11-04T06:53:59.336Z,316.00
2022-11-04T06:54:59.332Z,324.00
2022-11-04T06:55:59.319Z,336.00
2022-11-04T06:56:59.353Z,332.00
2022-11-04T06:57:59.296Z,316.00
2022-11-04T06:58:59.287Z,320.00
2022-11-04T06:59:59.276Z,340.00
2022-11-04T07:00:59.369Z,352.00
2022-11-04T07:01:59.412Z,368.00
2022-11-04T07:02:59.231Z,380.00
2022-11-04T07:03:59.228Z,400.00
2022-11-04T07:04:59.275Z,412.00
2022-11-04T07:05:59.203Z,448.00
2022-11-04T07:06:59.215Z,496.00
2022-11-04T07:07:59.190Z,556.00
2022-11-04T07:08:59.174Z,604.00
2022-11-04T07:09:59.179Z,644.00
2022-11-04T07:10:59.158Z,684.00
2022-11-04T07:11:59.171Z,724.00
2022-11-04T07:12:59.129Z,744.00
2022-11-04T07:13:59.115Z,748.00
2022-11-04T07:14:59.117Z,764.00
2022-11-04T07:15:59.097Z,788.00
2022-11-04T07:16:59.156Z,816.00
2022-11-04T07:17:59.068Z,840.00
2022-11-04T07:18:59.064Z,864.00
2022-11-04T07:19:59.059Z,884.00
2022-11-04T07:20:59.079Z,892.00
2022-11-04T07:21:59.027Z,884.00
2022-11-04T07:22:59.056Z,860.00
2022-11-04T07:23:59.042Z,824.00
2022-11-04T07:24:59.000Z,780.00
2022-11-04T07:25:58.985Z,732.00
2022-11-04T07:26:59.073Z,712.00
2022-11-04T07:28:02.098Z,720.00
2022-11-04T07:28:58.959Z,728.00
2022-11-04T07:29:58.938Z,748.00
2022-11-04T07:30:58.966Z,752.00
2022-11-04T07:31:58.924Z,728.00
2022-11-04T07:32:58.906Z,708.00
2022-11-04T07:33:58.968Z,724.00
2022-11-04T07:34:58.883Z,764.00
2022-11-04T07:35:58.894Z,824.00
2022-11-04T07:36:58.873Z,880.00
2022-11-04T07:37:58.849Z,936.00
2022-11-04T07:38:58.845Z,1028.00
2022-11-04T07:39:58.852Z,1104.00
2022-11-04T07:40:58.829Z,1116.00
2022-11-04T07:41:59.777Z,1068.00
2022-11-04T07:42:58.831Z,1004.00
2022-11-04T07:43:58.851Z,936.00
2022-11-04T07:44:58.793Z,848.00
2022-11-04T07:45:58.762Z,756.00
2022-11-04T07:46:58.787Z,716.00
2022-11-04T07:47:58.749Z,672.00
2022-11-04T07:48:58.735Z,648.00
2022-11-04T07:49:58.752Z,668.00
2022-11-04T07:50:58.731Z,720.00
2022-11-04T07:51:58.696Z,744.00
2022-11-04T07:52:58.705Z,800.00
2022-11-04T07:53:58.698Z,904.00
2022-11-04T07:54:58.669Z,1036.00
2022-11-04T07:55:58.723Z,1140.00
2022-11-04T07:56:58.669Z,1180.00
2022-11-04T07:57:58.665Z,1144.00
2022-11-04T07:58:58.632Z,1108.00
2022-11-04T07:59:58.623Z,1100.00
2022-11-04T08:00:58.601Z,1144.00
2022-11-04T08:01:58.847Z,1204.00
2022-11-04T08:02:58.651Z,1300.00
2022-11-04T08:03:58.556Z,1392.00
2022-11-04T08:04:58.553Z,1480.00
2022-11-04T08:05:58.552Z,1564.00
2022-11-04T08:06:58.635Z,1624.00
2022-11-04T08:07:58.513Z,1652.00
2022-11-04T08:08:58.612Z,1652.00
2022-11-04T08:09:58.488Z,1648.00
2022-11-04T08:10:58.479Z,1652.00
2022-11-04T08:11:58.491Z,1672.00
2022-11-04T08:12:58.488Z,1728.00
2022-11-04T08:13:58.465Z,1784.00
2022-11-04T08:14:58.441Z,1780.00
2022-11-04T08:15:58.431Z,1736.00
2022-11-04T08:16:58.412Z,1672.00
2022-11-04T08:17:58.681Z,1660.00
2022-11-04T08:18:58.729Z,1724.00
2022-11-04T08:19:58.400Z,1844.00
2022-11-04T08:20:58.372Z,1968.00
2022-11-04T08:21:58.366Z,2068.00
2022-11-04T08:22:58.383Z,2172.00
2022-11-04T08:23:58.336Z,2308.00
2022-11-04T08:24:58.331Z,2424.00
2022-11-04T08:25:58.307Z,2556.00
2022-11-04T08:26:58.306Z,2716.00
2022-11-04T08:28:01.022Z,2860.00
2022-11-04T08:28:58.282Z,2936.00
2022-11-04T08:29:58.274Z,2936.00
2022-11-04T08:30:58.286Z,2904.00
2022-11-04T08:31:58.250Z,2824.00
2022-11-04T08:32:58.234Z,2800.00
2022-11-04T08:33:58.241Z,2860.00
2022-11-04T08:34:58.263Z,2788.00
2022-11-04T08:35:58.210Z,2556.00
2022-11-04T08:36:58.219Z,2424.00
2022-11-04T08:37:58.188Z,2400.00
2022-11-04T08:38:58.167Z,2428.00
2022-11-04T08:39:58.191Z,2464.00
2022-11-04T08:40:59.916Z,2512.00
2022-11-04T08:41:58.136Z,2564.00
2022-11-04T08:42:58.133Z,2592.00
2022-11-04T08:43:58.113Z,2572.00
2022-11-04T08:44:58.137Z,2508.00
2022-11-04T08:45:58.093Z,2456.00
2022-11-04T08:46:58.114Z,2428.00
2022-11-04T08:48:01.405Z,2416.00
2022-11-04T08:48:59.061Z,2392.00
2022-11-04T08:49:58.065Z,2428.00
2022-11-04T08:50:58.036Z,2508.00
2022-11-04T08:51:58.020Z,2572.00
2022-11-04T08:52:58.013Z,2592.00
2022-11-04T08:53:58.009Z,2616.00
2022-11-04T08:54:58.038Z,2628.00
2022-11-04T08:55:57.991Z,2620.00
2022-11-04T08:56:58.045Z,2624.00
2022-11-04T08:57:57.960Z,2668.00
2022-11-04T08:58:57.946Z,2772.00
2022-11-04T08:59:58.119Z,2856.00
2022-11-04T09:00:57.948Z,2848.00
2022-11-04T09:01:58.147Z,2860.00
2022-11-04T09:02:57.943Z,2892.00
2022-11-04T09:03:57.928Z,2900.00
2022-11-04T09:04:57.881Z,2872.00
2022-11-04T09:05:57.884Z,2864.00
2022-11-04T09:06:57.877Z,2904.00
2022-11-04T09:07:57.844Z,2948.00
2022-11-04T09:08:57.848Z,2980.00
2022-11-04T09:09:57.821Z,3016.00
2022-11-04T09:10:57.849Z,3044.00
2022-11-04T09:11:57.798Z,3052.00
2022-11-04T09:12:57.890Z,3052.00
2022-11-04T09:13:57.776Z,3052.00
2022-11-04T09:14:57.810Z,3076.00
2022-11-04T09:15:57.753Z,3124.00
2022-11-04T09:16:57.745Z,3180.00
2022-11-04T09:17:57.735Z,3216.00
2022-11-04T09:18:57.712Z,3240.00
2022-11-04T09:19:57.796Z,3272.00
2022-11-04T09:20:57.716Z,3332.00
2022-11-04T09:21:57.689Z,3392.00
2022-11-04T09:22:57.680Z,3460.00
2022-11-04T09:23:57.666Z,3524.00
2022-11-04T09:24:57.947Z,3596.00
2022-11-04T09:25:57.645Z,3736.00
2022-11-04T09:26:57.667Z,3892.00
2022-11-04T09:27:57.619Z,4064.00
2022-11-04T09:28:57.751Z,4108.00
2022-11-04T09:29:57.605Z,4208.00
2022-11-04T09:30:57.588Z,4404.00
2022-11-04T09:31:57.618Z,4500.00
2022-11-04T09:32:57.571Z,4592.00
2022-11-04T09:33:57.558Z,4504.00
2022-11-04T09:34:57.556Z,4564.00
2022-11-04T09:35:57.584Z,4760.00
2022-11-04T09:36:57.562Z,4952.00
2022-11-04T09:37:57.516Z,5060.00
2022-11-04T09:38:57.503Z,5120.00
2022-11-04T09:39:57.487Z,5148.00
2022-11-04T09:40:57.476Z,5016.00
2022-11-04T09:41:57.492Z,4740.00
2022-11-04T09:42:57.460Z,4516.00
2022-11-04T09:43:57.443Z,4568.00
2022-11-04T09:45:20.655Z,4804.00
2022-11-04T09:45:58.459Z,4452.00
2022-11-04T09:46:57.420Z,4476.00
2022-11-04T09:47:57.408Z,4440.00
2022-11-04T09:48:57.396Z,4568.00
2022-11-04T09:49:57.380Z,4456.00
2022-11-04T09:50:57.407Z,4412.00
2022-11-04T09:51:57.351Z,4404.00
2022-11-04T09:52:57.349Z,4344.00
2022-11-04T09:53:57.344Z,4220.00
2022-11-04T09:54:57.316Z,4208.00
2022-11-04T09:55:57.363Z,4264.00
2022-11-04T09:56:57.298Z,4416.00
2022-11-04T09:57:57.356Z,4520.00
2022-11-04T09:58:57.281Z,4584.00
2022-11-04T09:59:57.260Z,4500.00
2022-11-04T10:00:57.717Z,4356.00
2022-11-04T10:01:57.353Z,4332.00
2022-11-04T10:02:57.242Z,4356.00
2022-11-04T10:03:57.219Z,3900.00
2022-11-04T10:04:57.214Z,3868.00
2022-11-04T10:05:57.235Z,3976.00
2022-11-04T10:06:57.197Z,3900.00
2022-11-04T10:07:57.171Z,4288.00
2022-11-04T10:08:57.179Z,4288.00
2022-11-04T10:09:57.154Z,4440.00
2022-11-04T10:10:57.169Z,4460.00
2022-11-04T10:11:57.319Z,4620.00
2022-11-04T10:12:57.129Z,4628.00
2022-11-04T10:13:57.122Z,4556.00
2022-11-04T10:14:57.094Z,4584.00
2022-11-04T10:15:57.087Z,4592.00
2022-11-04T10:16:57.210Z,4432.00
2022-11-04T10:17:57.069Z,4392.00
2022-11-04T10:18:57.056Z,4268.00
2022-11-04T10:19:57.049Z,4220.00
2022-11-04T10:20:57.041Z,4176.00
2022-11-04T10:21:57.048Z,4184.00
2022-11-04T10:22:57.020Z,4196.00
2022-11-04T10:23:56.993Z,4232.00
2022-11-04T10:24:56.990Z,4028.00
2022-11-04T10:25:56.972Z,3812.00
2022-11-04T10:27:00.423Z,3800.00
2022-11-04T10:27:56.990Z,3812.00
2022-11-04T10:28:56.936Z,3748.00
2022-11-04T10:29:57.192Z,3764.00
2022-11-04T10:30:56.955Z,3720.00
2022-11-04T10:31:56.906Z,3660.00
2022-11-04T10:32:57.005Z,3524.00
2022-11-04T10:33:56.889Z,3284.00
2022-11-04T10:34:56.876Z,3404.00
2022-11-04T10:35:56.870Z,3424.00
2022-11-04T10:36:56.919Z,3944.00
2022-11-04T10:37:56.839Z,4076.00
2022-11-04T10:38:56.876Z,4228.00
2022-11-04T10:39:56.818Z,4312.00
2022-11-04T10:40:56.820Z,4244.00
2022-11-04T10:41:56.794Z,4280.00
2022-11-04T10:42:56.779Z,4084.00
2022-11-04T10:43:56.801Z,3892.00
2022-11-04T10:44:56.768Z,3728.00
2022-11-04T10:45:56.748Z,3668.00
2022-11-04T10:46:56.761Z,3592.00
2022-11-04T10:47:56.771Z,3608.00
2022-11-04T10:48:56.863Z,3688.00
2022-11-04T10:50:26.488Z,3740.00
2022-11-04T10:50:57.695Z,3740.00
2022-11-04T10:51:56.713Z,3464.00
2022-11-04T10:52:56.686Z,3356.00
2022-11-04T10:53:56.810Z,3320.00
2022-11-04T10:54:56.651Z,3348.00
2022-11-04T10:55:56.635Z,3484.00
2022-11-04T10:56:56.780Z,3540.00
2022-11-04T10:57:56.658Z,3588.00
2022-11-04T10:58:56.609Z,3704.00
2022-11-04T10:59:56.599Z,3744.00
2022-11-04T11:00:56.679Z,3832.00
2022-11-04T11:01:56.793Z,3984.00
2022-11-04T11:02:56.602Z,4412.00
2022-11-04T11:03:56.557Z,4476.00
2022-11-04T11:04:56.550Z,4396.00
2022-11-04T11:05:56.534Z,4072.00
2022-11-04T11:06:56.550Z,4016.00
2022-11-04T11:07:56.509Z,3980.00
2022-11-04T11:08:56.496Z,4004.00
2022-11-04T11:09:56.483Z,4020.00
2022-11-04T11:10:56.489Z,4104.00
2022-11-04T11:11:56.503Z,4832.00
2022-11-04T11:12:56.464Z,5032.00
2022-11-04T11:13:56.449Z,5232.00
2022-11-04T11:14:56.428Z,5576.00
2022-11-04T11:15:56.447Z,5908.00
2022-11-04T11:16:56.431Z,6152.00
2022-11-04T11:17:56.399Z,6296.00
2022-11-04T11:18:56.395Z,6412.00
2022-11-04T11:19:56.365Z,6244.00
2022-11-04T11:20:56.367Z,6012.00
2022-11-04T11:21:56.408Z,5268.00
2022-11-04T11:22:59.308Z,4816.00
2022-11-04T11:23:57.365Z,3988.00
2022-11-04T11:24:56.314Z,3760.00
2022-11-04T11:25:56.295Z,3804.00
2022-11-04T11:26:56.285Z,4180.00
2022-11-04T11:27:56.271Z,3480.00
2022-11-04T11:28:59.232Z,3956.00
2022-11-04T11:29:56.262Z,4900.00
2022-11-04T11:30:56.256Z,4716.00
2022-11-04T11:31:56.275Z,4292.00
2022-11-04T11:32:56.230Z,4008.00
2022-11-04T11:33:56.219Z,4108.00
2022-11-04T11:34:56.208Z,3936.00
2022-11-04T11:35:56.203Z,3792.00
2022-11-04T11:36:56.245Z,3732.00
2022-11-04T11:37:56.169Z,3632.00
2022-11-04T11:38:56.166Z,3648.00
2022-11-04T11:39:56.142Z,3588.00
2022-11-04T11:41:23.425Z,3636.00
2022-11-04T11:41:57.164Z,4864.00
2022-11-04T11:42:56.199Z,5248.00
2022-11-04T11:43:56.135Z,4232.00
2022-11-04T11:44:56.126Z,3892.00
2022-11-04T11:45:56.085Z,4896.00
2022-11-04T11:46:56.081Z,4096.00
2022-11-04T11:47:56.064Z,4652.00
2022-11-04T11:48:56.034Z,4124.00
2022-11-04T11:49:56.066Z,4228.00
2022-11-04T11:50:56.018Z,4008.00
2022-11-04T11:51:57.176Z,3712.00
2022-11-04T11:52:56.009Z,4136.00
2022-11-04T11:53:55.997Z,3584.00
2022-11-04T11:54:55.992Z,3576.00
2022-11-04T11:55:55.959Z,3520.00
2022-11-04T12:01:05.293Z,3060.00
2022-11-04T12:01:57.049Z,3052.00
2022-11-04T12:02:56.132Z,3140.00
2022-11-04T12:09:56.802Z,3544.00
2022-11-04T12:10:55.791Z,3532.00
2022-11-04T12:11:55.782Z,3548.00
2022-11-04T12:12:55.793Z,3684.00
2022-11-04T12:13:55.783Z,3800.00
2022-11-04T12:14:55.764Z,3844.00
2022-11-04T12:15:55.738Z,3868.00
2022-11-04T12:16:55.726Z,3844.00
2022-11-04T12:17:55.722Z,3768.00
2022-11-04T12:18:55.733Z,3664.00
2022-11-04T12:19:55.701Z,3596.00
2022-11-04T12:20:55.680Z,3520.00
2022-11-04T12:21:55.670Z,3536.00
2022-11-04T12:22:55.671Z,3648.00
2022-11-04T12:23:55.684Z,3788.00
2022-11-04T12:24:55.661Z,3884.00
2022-11-04T12:25:55.718Z,3896.00
2022-11-04T12:26:55.611Z,4044.00
2022-11-04T12:27:55.601Z,4148.00
2022-11-04T12:28:55.591Z,4088.00
2022-11-04T12:29:55.599Z,3748.00
2022-11-04T12:30:55.564Z,4052.00
2022-11-04T12:31:55.626Z,4120.00
2022-11-04T12:32:55.557Z,4020.00
2022-11-04T12:33:55.539Z,3904.00
2022-11-04T12:34:55.523Z,3816.00
2022-11-04T12:35:55.511Z,3800.00
2022-11-04T12:36:55.529Z,3744.00
2022-11-04T12:37:55.490Z,3632.00
2022-11-04T12:38:55.502Z,3460.00
2022-11-04T12:39:55.470Z,3816.00
2022-11-04T12:41:26.296Z,3864.00
2022-11-04T12:42:20.130Z,3760.00
2022-11-04T12:42:56.455Z,3656.00
2022-11-04T12:43:55.549Z,3620.00
2022-11-04T12:44:55.704Z,3532.00
2022-11-04T12:45:55.419Z,3460.00
2022-11-04T12:46:55.413Z,3416.00
2022-11-04T12:47:55.415Z,3032.00
2022-11-04T12:48:58.359Z,3048.00
2022-11-04T12:49:55.385Z,3516.00
2022-11-04T12:50:55.344Z,3464.00
2022-11-04T12:51:55.336Z,3248.00
2022-11-04T12:52:55.352Z,3708.00